createdAt,value
2023-02-14T00:01:51.812Z,6.53
2023-02-14T00:04:38.564Z,6.50
2023-02-14T00:07:25.104Z,6.83
2023-02-14T00:10:12.422Z,8.23
2023-02-14T00:12:58.706Z,6.40
2023-02-14T00:15:46.524Z,6.80
2023-02-14T00:18:50.395Z,6.50
2023-02-14T00:21:38.719Z,6.43
2023-02-14T00:24:27.111Z,6.13
2023-02-14T00:27:13.691Z,6.23
2023-02-14T00:30:02.708Z,6.37
2023-02-14T00:32:50.615Z,6.63
2023-02-14T00:35:38.847Z,6.17
2023-02-14T00:38:25.627Z,6.00
2023-02-14T00:41:19.292Z,5.83
2023-02-14T00:44:06.794Z,6.00
2023-02-14T00:46:53.508Z,6.47
2023-02-14T00:49:44.574Z,6.30
2023-02-14T00:52:31.812Z,5.83
2023-02-14T00:55:18.704Z,5.97
2023-02-14T00:58:06.744Z,6.43
2023-02-14T01:00:53.777Z,5.60
2023-02-14T01:03:40.834Z,5.53
2023-02-14T01:06:28.875Z,5.83
2023-02-14T01:09:16.342Z,5.97
2023-02-14T01:12:03.187Z,6.10
2023-02-14T01:14:49.959Z,5.77
2023-02-14T01:17:39.233Z,5.40
2023-02-14T01:20:26.158Z,6.20
2023-02-14T01:23:14.272Z,5.80
2023-02-14T01:26:06.024Z,5.83
2023-02-14T01:28:53.565Z,5.63
2023-02-14T01:31:40.219Z,5.30
2023-02-14T01:34:26.854Z,5.00
2023-02-14T01:37:13.727Z,5.03
2023-02-14T01:40:03.009Z,6.00
2023-02-14T01:42:49.789Z,5.47
2023-02-14T01:45:36.627Z,5.63
2023-02-14T01:48:24.926Z,6.40
2023-02-14T01:51:11.791Z,6.33
2023-02-14T01:54:00.217Z,6.17
2023-02-14T01:56:52.740Z,6.53
2023-02-14T01:59:47.496Z,5.83
2023-02-14T02:02:34.363Z,5.73
2023-02-14T02:05:23.936Z,5.13
2023-02-14T02:08:10.669Z,5.47
2023-02-14T02:10:57.290Z,5.70
2023-02-14T02:13:45.312Z,5.80
2023-02-14T02:16:49.221Z,6.43
2023-02-14T02:20:15.359Z,5.70
2023-02-14T02:23:51.319Z,5.57
2023-02-14T02:27:08.384Z,6.10
2023-02-14T02:30:37.827Z,5.00
2023-02-14T02:34:01.961Z,5.83
2023-02-14T02:37:17.449Z,5.20
2023-02-14T02:40:23.476Z,5.30
2023-02-14T02:43:22.016Z,6.07
2023-02-14T02:46:34.483Z,6.13
2023-02-14T02:50:10.179Z,5.57
2023-02-14T02:53:07.027Z,5.70
2023-02-14T02:56:18.420Z,6.37
2023-02-14T02:59:18.494Z,5.30
2023-02-14T03:02:14.877Z,5.67
2023-02-14T03:05:05.659Z,6.27
2023-02-14T03:07:52.256Z,5.40
2023-02-14T03:10:40.752Z,5.70
2023-02-14T03:13:54.349Z,5.10
2023-02-14T03:16:54.849Z,5.43
2023-02-14T03:20:11.855Z,5.90
2023-02-14T03:23:05.671Z,5.47
2023-02-14T03:26:08.067Z,5.73
2023-02-14T03:29:03.930Z,5.93
2023-02-14T03:31:59.542Z,5.17
2023-02-14T03:34:55.280Z,5.17
2023-02-14T03:37:49.011Z,5.33
2023-02-14T03:40:40.236Z,5.20
2023-02-14T03:43:32.869Z,5.33
2023-02-14T03:46:25.585Z,4.87
2023-02-14T03:49:18.752Z,4.53
2023-02-14T03:52:08.529Z,4.67
2023-02-14T03:54:59.258Z,5.30
2023-02-14T03:57:54.145Z,5.03
2023-02-14T04:00:43.731Z,5.23
2023-02-14T04:03:33.426Z,5.17
2023-02-14T04:06:21.087Z,5.17
2023-02-14T04:09:07.738Z,5.40
2023-02-14T04:11:54.593Z,6.00
2023-02-14T04:14:41.473Z,7.00
2023-02-14T04:17:46.660Z,5.70
2023-02-14T04:20:34.261Z,6.07
2023-02-14T04:23:20.930Z,5.40
2023-02-14T04:26:08.104Z,4.93
2023-02-14T04:28:54.758Z,5.47
2023-02-14T04:31:42.237Z,7.77
2023-02-14T04:34:30.046Z,7.30
2023-02-14T04:37:19.640Z,6.90
2023-02-14T04:40:07.355Z,5.83
2023-02-14T04:42:54.260Z,6.90
2023-02-14T04:45:40.831Z,6.03
2023-02-14T04:48:27.618Z,4.97
2023-02-14T04:51:15.873Z,5.30
2023-02-14T04:54:02.740Z,5.27
2023-02-14T04:56:49.657Z,5.50
2023-02-14T04:59:36.408Z,5.70
2023-02-14T05:02:23.273Z,6.37
2023-02-14T05:05:09.974Z,5.77
2023-02-14T05:07:58.140Z,5.60
2023-02-14T05:10:45.252Z,5.20
2023-02-14T05:13:32.166Z,5.17
2023-02-14T05:16:19.115Z,5.60
2023-02-14T05:19:05.838Z,5.37
2023-02-14T05:21:52.725Z,6.80
2023-02-14T05:24:40.790Z,6.63
2023-02-14T05:27:27.467Z,5.40
2023-02-14T05:30:15.329Z,5.60
2023-02-14T05:33:02.555Z,7.77
2023-02-14T05:35:49.705Z,5.87
2023-02-14T05:38:36.738Z,6.53
2023-02-14T05:41:24.799Z,5.80
2023-02-14T05:44:11.546Z,6.07
2023-02-14T05:46:58.282Z,6.27
2023-02-14T05:49:44.971Z,5.40
2023-02-14T05:52:31.706Z,5.97
2023-02-14T05:55:18.622Z,6.30
2023-02-14T05:58:07.581Z,6.63
2023-02-14T06:00:54.008Z,6.60
2023-02-14T06:03:40.826Z,6.83
2023-02-14T06:06:27.850Z,6.43
2023-02-14T06:09:15.003Z,6.57
2023-02-14T06:12:01.855Z,6.93
2023-02-14T06:14:50.040Z,6.60
2023-02-14T06:17:36.908Z,6.23
2023-02-14T06:20:25.292Z,8.90
2023-02-14T06:23:11.787Z,7.70
2023-02-14T06:25:58.862Z,7.53
2023-02-14T06:28:45.352Z,6.13
2023-02-14T06:31:33.738Z,7.07
2023-02-14T06:34:20.647Z,6.97
2023-02-14T06:37:07.447Z,5.77
2023-02-14T06:39:54.172Z,6.00
2023-02-14T06:42:41.119Z,6.77
2023-02-14T06:45:27.825Z,6.33
2023-02-14T06:48:15.974Z,6.83
2023-02-14T06:51:03.196Z,6.47
2023-02-14T06:53:49.784Z,6.57
2023-02-14T06:56:36.552Z,6.80
2023-02-14T06:59:23.325Z,7.17
2023-02-14T07:02:15.358Z,6.47
2023-02-14T07:05:03.838Z,6.57
2023-02-14T07:07:50.846Z,6.53
2023-02-14T07:10:37.264Z,7.50
2023-02-14T07:13:24.428Z,7.97
2023-02-14T07:16:10.963Z,7.50
2023-02-14T07:18:57.686Z,8.17
2023-02-14T07:21:45.830Z,7.13
2023-02-14T07:24:32.625Z,6.73
2023-02-14T07:27:19.374Z,7.93
2023-02-14T07:30:07.559Z,7.83
2023-02-14T07:32:54.040Z,8.33
2023-02-14T07:35:40.910Z,7.87
2023-02-14T07:38:30.625Z,8.13
2023-02-14T07:41:17.499Z,9.27
2023-02-14T07:44:04.192Z,8.73
2023-02-14T07:46:51.070Z,9.30
2023-02-14T07:49:38.228Z,9.67
2023-02-14T07:52:25.199Z,8.20
2023-02-14T07:55:13.396Z,10.97
2023-02-14T07:58:00.150Z,9.90
2023-02-14T08:00:47.626Z,10.33
2023-02-14T08:03:34.465Z,9.83
2023-02-14T08:06:21.692Z,10.87
2023-02-14T08:09:12.177Z,9.20
2023-02-14T08:12:17.809Z,9.50
2023-02-14T08:15:24.237Z,8.80
2023-02-14T08:18:13.562Z,8.53
2023-02-14T08:21:00.989Z,8.80
2023-02-14T08:23:47.746Z,9.17
2023-02-14T08:26:34.458Z,9.00
2023-02-14T08:29:22.678Z,10.07
2023-02-14T08:32:09.387Z,10.37
2023-02-14T08:34:56.076Z,9.37
2023-02-14T08:37:42.978Z,10.27
2023-02-14T08:40:29.843Z,9.53
2023-02-14T08:43:16.787Z,10.13
2023-02-14T08:46:05.065Z,8.67
2023-02-14T08:48:53.508Z,9.63
2023-02-14T08:51:39.870Z,8.87
2023-02-14T08:54:26.650Z,10.30
2023-02-14T08:57:15.597Z,10.60
2023-02-14T09:00:02.120Z,9.23
2023-02-14T09:02:53.049Z,9.83
2023-02-14T09:05:39.820Z,9.67
2023-02-14T09:08:26.717Z,9.33
2023-02-14T09:11:15.231Z,9.20
2023-02-14T09:14:01.910Z,9.87
2023-02-14T09:16:48.707Z,11.03
2023-02-14T09:19:38.849Z,10.30
2023-02-14T09:22:25.441Z,11.40
2023-02-14T09:25:12.771Z,11.10
2023-02-14T09:27:59.693Z,11.20
2023-02-14T09:30:46.384Z,11.30
2023-02-14T09:33:33.233Z,10.87
2023-02-14T09:36:21.467Z,12.03
2023-02-14T09:39:07.992Z,11.13
2023-02-14T09:42:16.488Z,10.77
2023-02-14T09:45:08.176Z,11.97
2023-02-14T09:47:58.998Z,10.37
2023-02-14T09:50:50.895Z,14.50
2023-02-14T09:53:45.071Z,15.13
2023-02-14T09:56:51.690Z,13.10
2023-02-14T09:59:50.366Z,12.83
2023-02-14T10:02:43.695Z,12.17
2023-02-14T10:05:33.520Z,15.73
2023-02-14T10:08:39.485Z,18.03
2023-02-14T10:11:29.676Z,13.67
2023-02-14T10:14:21.162Z,12.20
2023-02-14T10:17:11.057Z,12.80
2023-02-14T10:20:02.839Z,12.67
2023-02-14T10:22:56.428Z,12.47
2023-02-14T10:25:48.062Z,12.80
2023-02-14T10:28:41.033Z,13.17
2023-02-14T10:31:31.205Z,14.30
2023-02-14T10:34:23.564Z,17.90
2023-02-14T10:37:25.148Z,15.07
2023-02-14T10:40:36.162Z,14.43
2023-02-14T10:43:35.234Z,12.87
2023-02-14T10:46:34.317Z,13.53
2023-02-14T10:49:34.551Z,13.97
2023-02-14T10:52:26.711Z,13.27
2023-02-14T10:55:31.372Z,11.37
2023-02-14T10:58:21.516Z,13.03
2023-02-14T11:01:12.075Z,13.10
2023-02-14T11:04:04.283Z,11.77
2023-02-14T11:06:51.631Z,12.10
2023-02-14T11:09:38.098Z,13.70
2023-02-14T11:12:37.595Z,12.77
2023-02-14T11:15:28.491Z,12.33
2023-02-14T11:18:23.672Z,12.53
2023-02-14T11:21:14.667Z,12.03
2023-02-14T11:24:01.506Z,13.13
2023-02-14T11:26:50.197Z,13.70
2023-02-14T11:29:45.666Z,14.10
2023-02-14T11:32:37.639Z,13.33
2023-02-14T11:35:30.273Z,12.60
2023-02-14T11:38:30.655Z,11.97
2023-02-14T11:41:18.215Z,13.87
2023-02-14T11:44:22.292Z,13.87
2023-02-14T11:47:27.871Z,12.60
2023-02-14T11:50:23.393Z,14.00
2023-02-14T11:53:13.129Z,13.47
2023-02-14T11:56:01.542Z,20.97
2023-02-14T11:58:54.405Z,12.23
2023-02-14T12:01:41.450Z,13.30
2023-02-14T12:04:38.118Z,14.37
2023-02-14T12:07:32.130Z,13.47
2023-02-14T12:10:22.601Z,13.33
2023-02-14T12:13:26.753Z,13.30
2023-02-14T12:16:22.639Z,12.63
2023-02-14T12:19:18.530Z,13.30
2023-02-14T12:22:07.650Z,12.10
2023-02-14T12:25:03.809Z,14.00
2023-02-14T12:27:54.991Z,12.73
2023-02-14T12:30:42.935Z,12.97
2023-02-14T12:33:29.436Z,13.47
2023-02-14T12:36:29.522Z,13.60
2023-02-14T12:39:27.276Z,20.17
2023-02-14T12:42:26.955Z,16.60
2023-02-14T12:45:20.191Z,22.87
2023-02-14T12:48:22.971Z,16.93
2023-02-14T12:51:15.193Z,15.23
2023-02-14T12:54:18.490Z,16.00
2023-02-14T12:57:14.222Z,15.87
2023-02-14T13:00:15.044Z,14.37
2023-02-14T13:03:32.431Z,14.20
2023-02-14T13:06:27.484Z,14.77
2023-02-14T13:09:34.994Z,15.03
2023-02-14T13:12:35.141Z,14.73
2023-02-14T13:15:30.121Z,14.47
2023-02-14T13:18:27.703Z,13.37
2023-02-14T13:21:19.933Z,13.33
2023-02-14T13:24:18.420Z,17.90
2023-02-14T13:27:08.261Z,15.47
2023-02-14T13:30:01.612Z,14.43
2023-02-14T13:32:56.066Z,14.13
2023-02-14T13:35:43.377Z,14.07
2023-02-14T13:38:33.006Z,16.23
2023-02-14T13:41:22.226Z,15.87
2023-02-14T13:44:13.143Z,15.60
2023-02-14T13:47:00.381Z,20.33
2023-02-14T13:49:54.258Z,15.27
2023-02-14T13:52:47.016Z,14.10
2023-02-14T13:55:37.703Z,15.73
2023-02-14T13:58:25.867Z,14.93
2023-02-14T14:01:31.550Z,12.57
2023-02-14T14:04:38.528Z,13.50
2023-02-14T14:07:30.151Z,14.97
2023-02-14T14:10:46.078Z,13.90
2023-02-14T14:14:02.684Z,13.47
2023-02-14T14:16:59.360Z,13.83
2023-02-14T14:19:47.472Z,15.70
2023-02-14T14:22:47.913Z,15.13
2023-02-14T14:25:37.594Z,13.77
2023-02-14T14:28:27.996Z,14.83
2023-02-14T14:31:15.066Z,16.03
2023-02-14T14:34:02.769Z,15.60
2023-02-14T14:36:49.799Z,16.27
2023-02-14T14:39:39.966Z,15.30
2023-02-14T14:42:30.612Z,16.07
2023-02-14T14:45:24.925Z,17.03
2023-02-14T14:48:14.451Z,17.23
2023-02-14T14:51:01.572Z,15.57
2023-02-14T14:53:51.955Z,15.63
2023-02-14T14:56:47.039Z,15.13
2023-02-14T14:59:35.842Z,15.17
2023-02-14T15:02:26.422Z,15.70
2023-02-14T15:05:26.064Z,15.13
2023-02-14T15:08:17.863Z,13.90
2023-02-14T15:11:13.117Z,15.07
2023-02-14T15:13:59.875Z,15.37
2023-02-14T15:16:49.753Z,14.07
2023-02-14T15:19:41.835Z,15.83
2023-02-14T15:22:31.330Z,15.20
2023-02-14T15:25:21.204Z,14.13
2023-02-14T15:28:07.816Z,14.63
2023-02-14T15:30:59.231Z,13.80
2023-02-14T15:33:46.050Z,14.07
2023-02-14T15:36:36.086Z,14.23
2023-02-14T15:39:28.487Z,14.17
2023-02-14T15:42:25.838Z,13.80
2023-02-14T15:45:17.057Z,15.03
2023-02-14T15:48:09.274Z,14.13
2023-02-14T15:50:59.176Z,14.80
2023-02-14T15:53:52.741Z,13.90
2023-02-14T15:56:45.720Z,15.13
2023-02-14T15:59:34.973Z,13.47
2023-02-14T16:02:31.248Z,14.40
2023-02-14T16:05:20.395Z,15.13
2023-02-14T16:08:24.132Z,14.53
2023-02-14T16:11:16.957Z,13.87
2023-02-14T16:14:21.777Z,13.03
2023-02-14T16:17:13.003Z,12.07
2023-02-14T16:19:59.782Z,13.57
2023-02-14T16:22:46.817Z,13.13
2023-02-14T16:25:33.672Z,12.77
2023-02-14T16:28:22.028Z,13.67
2023-02-14T16:31:12.541Z,15.37
2023-02-14T16:33:59.630Z,17.80
2023-02-14T16:36:46.491Z,15.17
2023-02-14T16:39:33.363Z,14.47
2023-02-14T16:42:20.339Z,14.30
2023-02-14T16:45:15.214Z,15.87
2023-02-14T16:48:01.651Z,13.43
2023-02-14T16:50:48.692Z,14.97
2023-02-14T16:53:36.236Z,13.40
2023-02-14T16:56:27.390Z,14.87
2023-02-14T16:59:14.039Z,14.93
2023-02-14T17:02:02.360Z,15.33
2023-02-14T17:04:48.786Z,13.73
2023-02-14T17:07:35.814Z,15.27
2023-02-14T17:10:22.499Z,15.87
2023-02-14T17:13:10.775Z,14.63
2023-02-14T17:15:58.315Z,15.00
2023-02-14T17:18:49.557Z,14.80
2023-02-14T17:21:36.268Z,14.80
2023-02-14T17:24:22.740Z,16.53
2023-02-14T17:27:09.946Z,15.70
2023-02-14T17:29:56.454Z,16.53
2023-02-14T17:32:43.199Z,18.77
2023-02-14T17:35:31.533Z,18.30
2023-02-14T17:38:20.248Z,28.73
2023-02-14T17:41:14.936Z,26.73
2023-02-14T17:44:02.066Z,23.13
2023-02-14T17:46:48.651Z,18.80
2023-02-14T17:49:35.592Z,18.13
2023-02-14T17:52:24.309Z,16.07
2023-02-14T17:55:11.225Z,18.57
2023-02-14T17:57:58.749Z,18.33
2023-02-14T18:00:45.752Z,17.77
2023-02-14T18:03:32.863Z,16.33
2023-02-14T18:06:19.925Z,16.93
2023-02-14T18:09:08.190Z,17.20
2023-02-14T18:11:55.648Z,16.77
2023-02-14T18:14:42.372Z,16.43
2023-02-14T18:17:29.344Z,13.17
2023-02-14T18:20:16.125Z,13.80
2023-02-14T18:23:07.146Z,14.57
2023-02-14T18:25:57.707Z,15.27
2023-02-14T18:28:44.550Z,14.93
2023-02-14T18:31:31.671Z,14.93
2023-02-14T18:34:18.558Z,14.27
2023-02-14T18:37:06.149Z,14.33
2023-02-14T18:39:52.677Z,13.53
2023-02-14T18:42:40.794Z,14.30
2023-02-14T18:45:27.668Z,13.90
2023-02-14T18:48:14.372Z,14.23
2023-02-14T18:51:06.583Z,12.60
2023-02-14T18:53:54.581Z,13.90
2023-02-14T18:56:41.768Z,13.63
2023-02-14T18:59:29.585Z,14.53
2023-02-14T19:02:16.783Z,15.43
2023-02-14T19:05:04.376Z,16.50
2023-02-14T19:07:55.191Z,15.17
2023-02-14T19:10:41.857Z,15.33
2023-02-14T19:13:29.498Z,15.77
2023-02-14T19:16:20.128Z,17.20
2023-02-14T19:19:06.578Z,16.93
2023-02-14T19:21:53.573Z,17.27
2023-02-14T19:24:40.174Z,16.97
2023-02-14T19:27:26.917Z,17.47
2023-02-14T19:30:14.193Z,17.07
2023-02-14T19:33:02.176Z,17.23
2023-02-14T19:35:50.280Z,20.53
2023-02-14T19:38:36.900Z,27.13
2023-02-14T19:41:26.009Z,17.90
2023-02-14T19:44:14.795Z,17.13
2023-02-14T19:47:05.892Z,19.40
2023-02-14T19:50:00.579Z,15.57
2023-02-14T19:52:47.317Z,23.57
2023-02-14T19:55:34.946Z,19.47
2023-02-14T19:58:21.616Z,17.90
2023-02-14T20:01:08.273Z,17.53
2023-02-14T20:03:55.243Z,16.43
2023-02-14T20:06:43.944Z,15.20
2023-02-14T20:09:30.385Z,14.70
2023-02-14T20:12:17.349Z,17.00
2023-02-14T20:15:05.843Z,15.70
2023-02-14T20:17:53.380Z,16.27
2023-02-14T20:21:05.957Z,14.17
2023-02-14T20:23:54.545Z,14.20
2023-02-14T20:26:42.639Z,13.47
2023-02-14T20:29:29.942Z,13.67
2023-02-14T20:32:17.490Z,16.37
2023-02-14T20:35:04.262Z,17.73
2023-02-14T20:37:52.521Z,17.60
2023-02-14T20:40:42.758Z,16.37
2023-02-14T20:43:29.334Z,15.73
2023-02-14T20:46:16.075Z,15.33
2023-02-14T20:49:03.341Z,17.17
2023-02-14T20:51:51.571Z,16.37
2023-02-14T20:54:39.428Z,15.77
2023-02-14T20:57:27.210Z,14.83
2023-02-14T21:00:15.180Z,15.27
2023-02-14T21:03:01.810Z,15.47
2023-02-14T21:05:49.084Z,15.87
2023-02-14T21:08:36.818Z,16.37
2023-02-14T21:11:25.172Z,15.33
2023-02-14T21:14:13.232Z,15.97
2023-02-14T21:17:00.025Z,15.03
2023-02-14T21:19:46.778Z,15.27
2023-02-14T21:22:33.837Z,16.53
2023-02-14T21:25:23.387Z,15.17
2023-02-14T21:28:10.814Z,13.30
2023-02-14T21:31:05.383Z,15.60
2023-02-14T21:33:53.458Z,13.83
2023-02-14T21:36:40.285Z,14.23
2023-02-14T21:39:27.938Z,14.10
2023-02-14T21:42:17.214Z,15.30
2023-02-14T21:45:22.873Z,13.43
2023-02-14T21:48:33.615Z,13.87
2023-02-14T21:51:20.802Z,15.00
2023-02-14T21:54:07.815Z,12.83
2023-02-14T21:56:54.707Z,13.87
2023-02-14T21:59:41.851Z,12.93
2023-02-14T22:02:28.364Z,14.03
2023-02-14T22:05:16.714Z,15.23
2023-02-14T22:08:03.610Z,14.97
2023-02-14T22:10:50.265Z,15.30
2023-02-14T22:13:37.443Z,13.97
2023-02-14T22:16:27.219Z,14.37
2023-02-14T22:19:16.104Z,14.33
2023-02-14T22:22:04.054Z,14.97
2023-02-14T22:24:50.767Z,14.10
2023-02-14T22:27:40.023Z,15.17
2023-02-14T22:30:26.577Z,13.33
2023-02-14T22:33:13.305Z,13.87
2023-02-14T22:36:01.059Z,12.93
2023-02-14T22:38:49.526Z,13.80
2023-02-14T22:41:38.033Z,14.67
2023-02-14T22:44:25.087Z,14.40
2023-02-14T22:47:12.734Z,13.40
2023-02-14T22:50:01.420Z,14.30
2023-02-14T22:52:49.065Z,14.10
2023-02-14T22:55:38.039Z,15.30
2023-02-14T22:58:26.732Z,16.33
2023-02-14T23:01:18.819Z,16.73
2023-02-14T23:04:07.425Z,16.13
2023-02-14T23:06:56.297Z,15.50
2023-02-14T23:09:43.448Z,14.83
2023-02-14T23:12:49.569Z,15.80
2023-02-14T23:15:54.449Z,15.73
2023-02-14T23:18:59.446Z,15.73
2023-02-14T23:21:58.381Z,16.53
2023-02-14T23:24:46.837Z,17.03
2023-02-14T23:27:37.725Z,17.80
2023-02-14T23:30:24.878Z,15.43
2023-02-14T23:33:11.565Z,15.93
2023-02-14T23:35:58.320Z,16.80
2023-02-14T23:38:45.081Z,18.00
2023-02-14T23:41:49.980Z,16.03
2023-02-14T23:44:38.223Z,17.33
2023-02-14T23:47:24.746Z,16.50
2023-02-14T23:50:16.565Z,16.97
2023-02-14T23:53:05.797Z,18.63
2023-02-14T23:55:53.140Z,16.00
2023-02-14T23:58:40.589Z,16.90
